Recommended Posts

Hello guys! I just noticed that Activesky shows completely different METAR that what is shown on flightradar24 or PFPX. Setting are set to show real live weather. Ie  AS reports LEMG 230756Z 29006KT 9999 SCT025 16/09 Q1030 FR24 reports LEMG 230730Z 28006KT CAVOK 06/03 Q1029 NOSIG. Any idea? Thnx 

 

 

Edited by Johnny19

Share this post


Link to post
Share on other sites
Help AVSIM continue to serve you!
Please donate today!

Hello Ivan, those are 2 different METAR times.

 

 

Share this post


Link to post
Share on other sites

Create an account or sign in to comment

You need to be a member in order to leave a comment

Create an account

Sign up for a new account in our community. It's easy!

Register a new account

Sign in

Already have an account? Sign in here.

Sign In Now